Terminal Aerodrome Forecast
Issued by NWS

Home | Current Version | Previous Version | Text Only | Print | Product List | Glossary On
Versions: 1 2 3 4 5 6 7 8 9 10 11 12
000
FTUS46 KOTX 231739
TAFMWH
TAF
KMWH 231739Z 2318/2418 VRB04KT P6SM SKC
     FM232200 23011G17KT P6SM SKC
     FM240000 24014G23KT P6SM SKC
     FM240300 29017G23KT P6SM SKC
     FM240600 34012KT P6SM SKC=

USA.gov is the U.S. government's official web portal to all federal, state and local government web resources and services.